FVYB weather

Yomba Airport
Yomba, Mashonaland West Province, Zimbabwe

Public forecast

Using degrees Celsius for public forecast. Weather courtesy of forecast.io.

Closest aviation weather report (METAR) to Yomba Airport

Report is more than 6 hours old.

Closest report is Robert Gabriel Mugabe International Airport, 71.2 nm (131.9 km) SSE. Retrieved 2020/02/23 18:00 UTC (8 hours ago):

FVRG 231800Z 18006KT 130V210 9999 FEW035CB BKN080 20/17 Q1019 NOSIG

Closest aviation forecast (TAF) to Yomba Airport

Forecast is more than 6 hours old.

Closest forecast is Robert Gabriel Mugabe International Airport, 71.2 nm (131.9 km) SSE. Retrieved 2020/02/23 18:00 UTC (8 hours ago):

TAF FVRG 231600Z 2318/2424 24017G27KT 9999 TS FEW035CB BKN080 PROB30 TEMPO 2319/2322 8000 -TSRA FEW040CB BKN080 BECMG 2402/2404 9000 -RA BKN080 BECMG 2406/2408 SCT020 BECMG 2410/2412 SCT030TCU PROB30 TEMPO 2414/2418 8000 -TSRA FEW035CB BKN080 FM242000 /////KT CAVOK